Portada
METAR-TAF:

METAR-TAF

Aeropuertos :

Aeropuerto de Rabat-Salé

Rabat, Marruecos

latitud: 34-03N, longitud: 006-46W, altitud: 84 m

Observación

El informe se hizo hace 24 minutos, a las 13:00 UTC
Viento 9 kt del este, variando entre este-noreste y sureste
Temperatura 18°C
Humedad 39%
Presión 1026 hPa
Visibilidad: 6000 m

METAR: GMME 031300Z 10009KT 060V140 6000 NSC 18/04 Q1026 NOSIG

Hora: 14:24 (13:24 UTC)

Pronóstico

El informe se hizo hace 2 horas y 24 minutos, a las 11:00 UTC
Pronóstico válido del 03 a las 12 UTC al 04 a las 18 UTC
Viento 10 kt del este
Visibilidad: 6000 m
Temporalmente
del 03 a las 21 UTC al 04 a las 05 UTC
Viento 2 kt con dirección variable

TAF: GMME 031100Z 0312/0418 08010KT 6000 NSC TEMPO 0321/0405 VRB02KT

Observaciones y pronósticos meteorológicos de más de 4000 aeropuertos (mensajes METAR y TAF).

Los puntos amarillos y rojos representan las estaciones disponibles.

Ponga el ratón en el punto deseado para ver el nombre de la estación.

Haga clic para ver las observaciones y los pronósticos meteorológicos.

Para cambiar el mapa : haga clic en los botones verdes con una cruz de color negro para hacer un zoom, en el botón verde con un guión para alejar o en las flechas verdes para mapas adyacentes.


METAR-TAF: